sensor_id;sensor_type;location;lat;lon;timestamp;P1;durP1;ratioP1;P2;durP2;ratioP2
8584;SDS011;7180;52.742;11.420;2022-09-09T00:04:34;28.53;;;20.47;;
8584;SDS011;7180;52.742;11.420;2022-09-09T00:09:47;22.50;;;18.50;;
8584;SDS011;7180;52.742;11.420;2022-09-09T00:12:19;22.27;;;18.80;;
8584;SDS011;7180;52.742;11.420;2022-09-09T00:14:49;23.23;;;18.77;;
8584;SDS011;7180;52.742;11.420;2022-09-09T00:17:25;20.10;;;17.50;;
8584;SDS011;7180;52.742;11.420;2022-09-09T00:20:03;19.53;;;16.90;;
8584;SDS011;7180;52.742;11.420;2022-09-09T00:22:30;21.27;;;17.37;;
8584;SDS011;7180;52.742;11.420;2022-09-09T00:27:37;18.93;;;16.90;;
8584;SDS011;7180;52.742;11.420;2022-09-09T00:30:18;18.33;;;16.43;;
8584;SDS011;7180;52.742;11.420;2022-09-09T00:32:45;17.93;;;16.00;;
8584;SDS011;7180;52.742;11.420;2022-09-09T00:35:25;21.50;;;18.10;;
8584;SDS011;7180;52.742;11.420;2022-09-09T00:37:53;21.13;;;17.20;;
8584;SDS011;7180;52.742;11.420;2022-09-09T00:42:47;22.60;;;18.63;;
8584;SDS011;7180;52.742;11.420;2022-09-09T00:47:52;22.50;;;18.23;;
8584;SDS011;7180;52.742;11.420;2022-09-09T00:57:51;15.30;;;13.70;;
8584;SDS011;7180;52.742;11.420;2022-09-09T01:00:21;18.20;;;16.07;;
8584;SDS011;7180;52.742;11.420;2022-09-09T01:03:06;16.80;;;15.00;;
8584;SDS011;7180;52.742;11.420;2022-09-09T01:08:01;18.33;;;16.40;;
8584;SDS011;7180;52.742;11.420;2022-09-09T01:13:26;17.67;;;15.93;;
8584;SDS011;7180;52.742;11.420;2022-09-09T01:15:51;15.73;;;14.17;;
8584;SDS011;7180;52.742;11.420;2022-09-09T01:18:19;16.97;;;15.27;;
8584;SDS011;7180;52.742;11.420;2022-09-09T01:20:49;15.50;;;13.90;;
8584;SDS011;7180;52.742;11.420;2022-09-09T01:28:48;16.20;;;14.60;;
8584;SDS011;7180;52.742;11.420;2022-09-09T01:31:18;15.70;;;14.10;;
8584;SDS011;7180;52.742;11.420;2022-09-09T01:33:44;15.17;;;13.70;;
8584;SDS011;7180;52.742;11.420;2022-09-09T01:36:11;16.37;;;14.67;;
8584;SDS011;7180;52.742;11.420;2022-09-09T01:38:37;15.03;;;13.53;;
8584;SDS011;7180;52.742;11.420;2022-09-09T01:41:03;14.73;;;13.20;;
8584;SDS011;7180;52.742;11.420;2022-09-09T01:43:28;15.37;;;13.73;;
8584;SDS011;7180;52.742;11.420;2022-09-09T01:45:54;15.73;;;14.20;;
8584;SDS011;7180;52.742;11.420;2022-09-09T01:48:21;14.93;;;13.33;;
8584;SDS011;7180;52.742;11.420;2022-09-09T01:50:47;14.97;;;13.47;;
8584;SDS011;7180;52.742;11.420;2022-09-09T01:53:13;15.70;;;14.13;;
8584;SDS011;7180;52.742;11.420;2022-09-09T01:55:41;17.03;;;13.97;;
8584;SDS011;7180;52.742;11.420;2022-09-09T01:58:43;17.63;;;13.97;;
8584;SDS011;7180;52.742;11.420;2022-09-09T02:01:05;15.87;;;13.97;;
8584;SDS011;7180;52.742;11.420;2022-09-09T02:03:31;14.17;;;12.73;;
8584;SDS011;7180;52.742;11.420;2022-09-09T02:13:29;14.13;;;12.80;;
8584;SDS011;7180;52.742;11.420;2022-09-09T02:16:12;14.13;;;12.73;;
8584;SDS011;7180;52.742;11.420;2022-09-09T02:21:08;14.17;;;12.83;;
8584;SDS011;7180;52.742;11.420;2022-09-09T02:23:35;14.00;;;12.70;;
8584;SDS011;7180;52.742;11.420;2022-09-09T02:26:01;12.93;;;11.77;;
8584;SDS011;7180;52.742;11.420;2022-09-09T02:28:28;14.00;;;12.53;;
8584;SDS011;7180;52.742;11.420;2022-09-09T02:30:53;11.80;;;10.77;;
8584;SDS011;7180;52.742;11.420;2022-09-09T02:33:20;14.23;;;12.70;;
8584;SDS011;7180;52.742;11.420;2022-09-09T02:35:47;13.90;;;12.50;;
8584;SDS011;7180;52.742;11.420;2022-09-09T02:38:13;13.97;;;12.57;;
8584;SDS011;7180;52.742;11.420;2022-09-09T02:40:40;13.73;;;12.43;;
8584;SDS011;7180;52.742;11.420;2022-09-09T02:43:05;12.63;;;11.43;;
8584;SDS011;7180;52.742;11.420;2022-09-09T02:45:41;13.87;;;12.47;;
8584;SDS011;7180;52.742;11.420;2022-09-09T02:48:09;12.73;;;11.43;;
8584;SDS011;7180;52.742;11.420;2022-09-09T02:50:41;13.07;;;11.87;;
8584;SDS011;7180;52.742;11.420;2022-09-09T02:53:17;12.87;;;11.67;;
8584;SDS011;7180;52.742;11.420;2022-09-09T02:55:50;12.00;;;10.80;;
8584;SDS011;7180;52.742;11.420;2022-09-09T02:58:18;12.60;;;11.30;;
8584;SDS011;7180;52.742;11.420;2022-09-09T03:00:45;11.17;;;10.17;;
8584;SDS011;7180;52.742;11.420;2022-09-09T03:03:10;10.90;;;10.00;;
8584;SDS011;7180;52.742;11.420;2022-09-09T03:05:36;10.73;;;9.83;;
8584;SDS011;7180;52.742;11.420;2022-09-09T03:08:01;13.23;;;10.77;;
8584;SDS011;7180;52.742;11.420;2022-09-09T03:10:27;13.00;;;11.87;;
8584;SDS011;7180;52.742;11.420;2022-09-09T03:12:52;11.23;;;10.23;;
8584;SDS011;7180;52.742;11.420;2022-09-09T03:15:17;12.40;;;11.10;;
8584;SDS011;7180;52.742;11.420;2022-09-09T03:17:42;11.20;;;10.20;;
8584;SDS011;7180;52.742;11.420;2022-09-09T03:20:08;11.10;;;10.10;;
8584;SDS011;7180;52.742;11.420;2022-09-09T03:22:33;11.40;;;10.40;;
8584;SDS011;7180;52.742;11.420;2022-09-09T03:24:58;10.30;;;9.40;;
8584;SDS011;7180;52.742;11.420;2022-09-09T03:27:24;12.03;;;10.83;;
8584;SDS011;7180;52.742;11.420;2022-09-09T03:29:49;10.73;;;9.70;;
8584;SDS011;7180;52.742;11.420;2022-09-09T03:32:16;10.70;;;9.80;;
8584;SDS011;7180;52.742;11.420;2022-09-09T03:34:42;10.80;;;9.70;;
8584;SDS011;7180;52.742;11.420;2022-09-09T03:37:07;10.13;;;9.23;;
8584;SDS011;7180;52.742;11.420;2022-09-09T03:39:32;9.77;;;9.00;;
8584;SDS011;7180;52.742;11.420;2022-09-09T03:41:58;9.93;;;8.98;;
8584;SDS011;7180;52.742;11.420;2022-09-09T03:44:23;9.63;;;8.73;;
8584;SDS011;7180;52.742;11.420;2022-09-09T03:46:48;10.20;;;9.30;;
8584;SDS011;7180;52.742;11.420;2022-09-09T03:49:13;10.20;;;9.30;;
8584;SDS011;7180;52.742;11.420;2022-09-09T03:51:38;10.23;;;9.37;;
8584;SDS011;7180;52.742;11.420;2022-09-09T03:54:04;10.87;;;9.87;;
8584;SDS011;7180;52.742;11.420;2022-09-09T03:56:33;10.30;;;9.40;;
8584;SDS011;7180;52.742;11.420;2022-09-09T03:58:58;10.32;;;9.43;;
8584;SDS011;7180;52.742;11.420;2022-09-09T04:01:23;10.07;;;9.17;;
8584;SDS011;7180;52.742;11.420;2022-09-09T04:03:48;11.00;;;9.97;;
8584;SDS011;7180;52.742;11.420;2022-09-09T04:06:13;10.73;;;9.73;;
8584;SDS011;7180;52.742;11.420;2022-09-09T04:08:39;11.47;;;10.27;;
8584;SDS011;7180;52.742;11.420;2022-09-09T04:11:05;11.37;;;10.13;;
8584;SDS011;7180;52.742;11.420;2022-09-09T04:13:31;11.70;;;10.60;;
8584;SDS011;7180;52.742;11.420;2022-09-09T04:15:57;11.27;;;10.07;;
8584;SDS011;7180;52.742;11.420;2022-09-09T04:18:23;10.80;;;9.90;;
8584;SDS011;7180;52.742;11.420;2022-09-09T04:20:49;10.77;;;9.67;;
8584;SDS011;7180;52.742;11.420;2022-09-09T04:23:15;10.03;;;9.03;;
8584;SDS011;7180;52.742;11.420;2022-09-09T04:25:44;10.87;;;9.87;;
8584;SDS011;7180;52.742;11.420;2022-09-09T04:28:10;11.20;;;10.20;;
8584;SDS011;7180;52.742;11.420;2022-09-09T04:30:35;10.87;;;9.77;;
8584;SDS011;7180;52.742;11.420;2022-09-09T04:33:00;10.07;;;9.17;;
8584;SDS011;7180;52.742;11.420;2022-09-09T04:35:25;10.82;;;9.80;;
8584;SDS011;7180;52.742;11.420;2022-09-09T04:37:52;11.43;;;10.23;;
8584;SDS011;7180;52.742;11.420;2022-09-09T04:40:17;10.93;;;9.83;;
8584;SDS011;7180;52.742;11.420;2022-09-09T04:42:42;11.27;;;10.27;;
8584;SDS011;7180;52.742;11.420;2022-09-09T04:45:08;10.30;;;9.23;;
8584;SDS011;7180;52.742;11.420;2022-09-09T04:47:36;10.37;;;9.27;;
8584;SDS011;7180;52.742;11.420;2022-09-09T04:50:01;9.47;;;8.67;;
8584;SDS011;7180;52.742;11.420;2022-09-09T04:52:26;9.00;;;8.30;;
8584;SDS011;7180;52.742;11.420;2022-09-09T04:54:51;9.53;;;8.63;;
8584;SDS011;7180;52.742;11.420;2022-09-09T04:57:19;9.97;;;8.13;;
8584;SDS011;7180;52.742;11.420;2022-09-09T04:59:44;10.00;;;8.20;;
8584;SDS011;7180;52.742;11.420;2022-09-09T05:02:10;9.27;;;8.47;;
8584;SDS011;7180;52.742;11.420;2022-09-09T05:04:36;9.50;;;8.53;;
8584;SDS011;7180;52.742;11.420;2022-09-09T05:07:01;8.83;;;8.13;;
8584;SDS011;7180;52.742;11.420;2022-09-09T05:09:26;8.97;;;8.13;;
8584;SDS011;7180;52.742;11.420;2022-09-09T05:11:51;8.77;;;8.07;;
8584;SDS011;7180;52.742;11.420;2022-09-09T05:14:16;8.13;;;7.50;;
8584;SDS011;7180;52.742;11.420;2022-09-09T05:16:42;8.50;;;7.80;;
8584;SDS011;7180;52.742;11.420;2022-09-09T05:19:09;8.90;;;8.10;;
8584;SDS011;7180;52.742;11.420;2022-09-09T05:21:34;8.10;;;7.50;;
8584;SDS011;7180;52.742;11.420;2022-09-09T05:23:59;8.77;;;8.07;;
8584;SDS011;7180;52.742;11.420;2022-09-09T05:26:25;8.20;;;7.60;;
8584;SDS011;7180;52.742;11.420;2022-09-09T05:28:50;8.43;;;7.73;;
8584;SDS011;7180;52.742;11.420;2022-09-09T05:31:16;8.98;;;7.63;;
8584;SDS011;7180;52.742;11.420;2022-09-09T05:33:42;8.23;;;7.50;;
8584;SDS011;7180;52.742;11.420;2022-09-09T05:36:08;8.20;;;7.50;;
8584;SDS011;7180;52.742;11.420;2022-09-09T05:38:35;8.03;;;7.43;;
8584;SDS011;7180;52.742;11.420;2022-09-09T05:41:01;7.70;;;7.00;;
8584;SDS011;7180;52.742;11.420;2022-09-09T05:43:27;8.37;;;7.67;;
8584;SDS011;7180;52.742;11.420;2022-09-09T05:48:29;8.87;;;8.07;;
8584;SDS011;7180;52.742;11.420;2022-09-09T05:50:55;8.80;;;7.63;;
8584;SDS011;7180;52.742;11.420;2022-09-09T05:53:20;8.00;;;7.27;;
8584;SDS011;7180;52.742;11.420;2022-09-09T05:55:45;7.93;;;7.30;;
8584;SDS011;7180;52.742;11.420;2022-09-09T05:58:11;7.70;;;7.00;;
8584;SDS011;7180;52.742;11.420;2022-09-09T06:00:36;7.83;;;7.00;;
8584;SDS011;7180;52.742;11.420;2022-09-09T06:03:01;7.87;;;7.17;;
8584;SDS011;7180;52.742;11.420;2022-09-09T06:05:27;7.47;;;6.77;;
8584;SDS011;7180;52.742;11.420;2022-09-09T06:07:53;7.07;;;6.57;;
8584;SDS011;7180;52.742;11.420;2022-09-09T06:10:18;7.50;;;6.90;;
8584;SDS011;7180;52.742;11.420;2022-09-09T06:12:44;7.40;;;6.80;;
8584;SDS011;7180;52.742;11.420;2022-09-09T06:15:09;7.00;;;6.47;;
8584;SDS011;7180;52.742;11.420;2022-09-09T06:17:34;7.70;;;7.00;;
8584;SDS011;7180;52.742;11.420;2022-09-09T06:19:59;7.50;;;6.80;;
8584;SDS011;7180;52.742;11.420;2022-09-09T06:22:24;6.90;;;6.30;;
8584;SDS011;7180;52.742;11.420;2022-09-09T06:24:50;6.90;;;6.30;;
8584;SDS011;7180;52.742;11.420;2022-09-09T06:27:16;7.10;;;6.40;;
8584;SDS011;7180;52.742;11.420;2022-09-09T06:29:41;7.35;;;6.65;;
8584;SDS011;7180;52.742;11.420;2022-09-09T06:32:06;7.60;;;7.00;;
8584;SDS011;7180;52.742;11.420;2022-09-09T06:34:33;7.00;;;6.50;;
8584;SDS011;7180;52.742;11.420;2022-09-09T06:36:58;7.20;;;6.60;;
8584;SDS011;7180;52.742;11.420;2022-09-09T06:39:23;6.80;;;6.20;;
8584;SDS011;7180;52.742;11.420;2022-09-09T06:41:49;6.83;;;6.00;;
8584;SDS011;7180;52.742;11.420;2022-09-09T06:44:14;6.40;;;5.90;;
8584;SDS011;7180;52.742;11.420;2022-09-09T06:46:40;6.87;;;5.77;;
8584;SDS011;7180;52.742;11.420;2022-09-09T06:49:05;5.97;;;5.57;;
8584;SDS011;7180;52.742;11.420;2022-09-09T06:51:31;6.73;;;6.23;;
8584;SDS011;7180;52.742;11.420;2022-09-09T06:53:58;5.83;;;5.37;;
8584;SDS011;7180;52.742;11.420;2022-09-09T06:58:49;5.83;;;5.43;;
8584;SDS011;7180;52.742;11.420;2022-09-09T07:01:15;6.17;;;5.67;;
8584;SDS011;7180;52.742;11.420;2022-09-09T07:03:41;5.83;;;5.33;;
8584;SDS011;7180;52.742;11.420;2022-09-09T07:06:13;5.37;;;4.97;;
8584;SDS011;7180;52.742;11.420;2022-09-09T07:08:39;5.30;;;5.00;;
8584;SDS011;7180;52.742;11.420;2022-09-09T07:11:05;5.40;;;4.90;;
8584;SDS011;7180;52.742;11.420;2022-09-09T07:13:31;5.77;;;5.07;;
8584;SDS011;7180;52.742;11.420;2022-09-09T07:16:02;5.53;;;5.03;;
8584;SDS011;7180;52.742;11.420;2022-09-09T07:18:28;5.40;;;4.90;;
8584;SDS011;7180;52.742;11.420;2022-09-09T07:20:53;5.30;;;4.90;;
8584;SDS011;7180;52.742;11.420;2022-09-09T07:23:19;5.40;;;4.90;;
8584;SDS011;7180;52.742;11.420;2022-09-09T07:25:45;6.30;;;4.80;;
8584;SDS011;7180;52.742;11.420;2022-09-09T07:28:10;5.27;;;4.97;;
8584;SDS011;7180;52.742;11.420;2022-09-09T07:30:36;5.30;;;4.80;;
8584;SDS011;7180;52.742;11.420;2022-09-09T07:33:01;5.40;;;5.00;;
8584;SDS011;7180;52.742;11.420;2022-09-09T07:35:28;4.47;;;4.17;;
8584;SDS011;7180;52.742;11.420;2022-09-09T07:37:53;5.03;;;4.63;;
8584;SDS011;7180;52.742;11.420;2022-09-09T07:40:18;4.67;;;4.27;;
8584;SDS011;7180;52.742;11.420;2022-09-09T07:42:45;6.27;;;4.67;;
8584;SDS011;7180;52.742;11.420;2022-09-09T07:45:11;5.43;;;4.67;;
8584;SDS011;7180;52.742;11.420;2022-09-09T07:47:36;5.13;;;4.70;;
8584;SDS011;7180;52.742;11.420;2022-09-09T07:50:02;4.82;;;4.50;;
8584;SDS011;7180;52.742;11.420;2022-09-09T07:52:27;5.63;;;4.70;;
8584;SDS011;7180;52.742;11.420;2022-09-09T07:54:52;5.33;;;4.53;;
8584;SDS011;7180;52.742;11.420;2022-09-09T07:57:17;5.20;;;4.67;;
8584;SDS011;7180;52.742;11.420;2022-09-09T07:59:42;4.90;;;4.50;;
8584;SDS011;7180;52.742;11.420;2022-09-09T08:02:08;4.93;;;4.43;;
8584;SDS011;7180;52.742;11.420;2022-09-09T08:04:34;5.03;;;4.60;;
8584;SDS011;7180;52.742;11.420;2022-09-09T08:07:00;5.00;;;4.50;;
8584;SDS011;7180;52.742;11.420;2022-09-09T08:09:26;4.93;;;4.57;;
8584;SDS011;7180;52.742;11.420;2022-09-09T08:11:53;4.60;;;4.30;;
8584;SDS011;7180;52.742;11.420;2022-09-09T08:14:18;5.10;;;4.40;;
8584;SDS011;7180;52.742;11.420;2022-09-09T08:16:44;4.93;;;4.40;;
8584;SDS011;7180;52.742;11.420;2022-09-09T08:19:10;6.83;;;4.73;;
8584;SDS011;7180;52.742;11.420;2022-09-09T08:21:36;5.00;;;4.60;;
8584;SDS011;7180;52.742;11.420;2022-09-09T08:24:02;4.60;;;4.30;;
8584;SDS011;7180;52.742;11.420;2022-09-09T08:26:31;5.10;;;4.70;;
8584;SDS011;7180;52.742;11.420;2022-09-09T08:28:57;5.00;;;4.60;;
8584;SDS011;7180;52.742;11.420;2022-09-09T08:31:27;4.13;;;3.83;;
8584;SDS011;7180;52.742;11.420;2022-09-09T08:33:56;5.10;;;4.60;;
8584;SDS011;7180;52.742;11.420;2022-09-09T08:36:23;4.57;;;4.23;;
8584;SDS011;7180;52.742;11.420;2022-09-09T08:38:52;5.57;;;4.23;;
8584;SDS011;7180;52.742;11.420;2022-09-09T08:44:07;6.67;;;4.83;;
8584;SDS011;7180;52.742;11.420;2022-09-09T08:46:55;5.07;;;4.57;;
8584;SDS011;7180;52.742;11.420;2022-09-09T08:51:57;4.80;;;4.43;;
8584;SDS011;7180;52.742;11.420;2022-09-09T08:54:23;4.70;;;4.30;;
8584;SDS011;7180;52.742;11.420;2022-09-09T08:56:48;4.67;;;4.27;;
8584;SDS011;7180;52.742;11.420;2022-09-09T08:59:15;5.13;;;4.40;;
8584;SDS011;7180;52.742;11.420;2022-09-09T09:01:43;4.30;;;4.00;;
8584;SDS011;7180;52.742;11.420;2022-09-09T09:11:52;5.10;;;4.70;;
8584;SDS011;7180;52.742;11.420;2022-09-09T09:14:20;4.70;;;4.33;;
8584;SDS011;7180;52.742;11.420;2022-09-09T09:16:50;4.57;;;4.27;;
8584;SDS011;7180;52.742;11.420;2022-09-09T09:19:16;4.47;;;4.17;;
8584;SDS011;7180;52.742;11.420;2022-09-09T09:21:43;4.50;;;4.10;;
8584;SDS011;7180;52.742;11.420;2022-09-09T09:24:15;4.40;;;4.10;;
8584;SDS011;7180;52.742;11.420;2022-09-09T09:26:41;4.33;;;4.03;;
8584;SDS011;7180;52.742;11.420;2022-09-09T09:29:09;4.60;;;4.30;;
8584;SDS011;7180;52.742;11.420;2022-09-09T09:31:36;4.50;;;4.10;;
8584;SDS011;7180;52.742;11.420;2022-09-09T09:34:01;4.50;;;4.20;;
8584;SDS011;7180;52.742;11.420;2022-09-09T09:36:34;4.70;;;4.40;;
8584;SDS011;7180;52.742;11.420;2022-09-09T09:39:01;4.60;;;4.20;;
8584;SDS011;7180;52.742;11.420;2022-09-09T09:43:57;5.10;;;4.70;;
8584;SDS011;7180;52.742;11.420;2022-09-09T09:46:24;4.70;;;4.30;;
8584;SDS011;7180;52.742;11.420;2022-09-09T09:49:09;4.60;;;4.30;;
8584;SDS011;7180;52.742;11.420;2022-09-09T09:51:34;5.00;;;4.50;;
8584;SDS011;7180;52.742;11.420;2022-09-09T09:54:15;4.43;;;4.13;;
8584;SDS011;7180;52.742;11.420;2022-09-09T09:56:41;5.30;;;4.27;;
8584;SDS011;7180;52.742;11.420;2022-09-09T09:59:19;4.30;;;4.00;;
8584;SDS011;7180;52.742;11.420;2022-09-09T10:01:45;4.00;;;3.70;;
8584;SDS011;7180;52.742;11.420;2022-09-09T10:04:18;5.93;;;3.80;;
8584;SDS011;7180;52.742;11.420;2022-09-09T10:06:45;5.00;;;4.60;;
8584;SDS011;7180;52.742;11.420;2022-09-09T10:09:24;5.50;;;5.10;;
8584;SDS011;7180;52.742;11.420;2022-09-09T10:11:52;4.57;;;4.17;;
8584;SDS011;7180;52.742;11.420;2022-09-09T10:14:26;4.60;;;4.20;;
8584;SDS011;7180;52.742;11.420;2022-09-09T10:19:40;5.23;;;4.80;;
8584;SDS011;7180;52.742;11.420;2022-09-09T10:22:25;5.00;;;4.70;;
8584;SDS011;7180;52.742;11.420;2022-09-09T10:27:22;4.77;;;4.37;;
8584;SDS011;7180;52.742;11.420;2022-09-09T10:32:48;5.47;;;5.07;;
8584;SDS011;7180;52.742;11.420;2022-09-09T10:35:26;5.13;;;4.63;;
8584;SDS011;7180;52.742;11.420;2022-09-09T10:38:00;5.67;;;5.00;;
8584;SDS011;7180;52.742;11.420;2022-09-09T10:40:33;4.70;;;4.40;;
8584;SDS011;7180;52.742;11.420;2022-09-09T10:43:01;5.03;;;4.73;;
8584;SDS011;7180;52.742;11.420;2022-09-09T10:45:32;4.60;;;4.30;;
8584;SDS011;7180;52.742;11.420;2022-09-09T10:51:05;4.40;;;4.00;;
8584;SDS011;7180;52.742;11.420;2022-09-09T10:56:21;4.23;;;3.90;;
8584;SDS011;7180;52.742;11.420;2022-09-09T10:58:53;4.10;;;3.77;;
8584;SDS011;7180;52.742;11.420;2022-09-09T11:01:19;4.77;;;4.47;;
8584;SDS011;7180;52.742;11.420;2022-09-09T11:03:47;5.13;;;4.60;;
8584;SDS011;7180;52.742;11.420;2022-09-09T11:06:16;5.00;;;4.60;;
8584;SDS011;7180;52.742;11.420;2022-09-09T11:08:43;4.90;;;4.50;;
8584;SDS011;7180;52.742;11.420;2022-09-09T11:16:29;5.07;;;4.60;;
8584;SDS011;7180;52.742;11.420;2022-09-09T11:19:09;5.20;;;4.70;;
8584;SDS011;7180;52.742;11.420;2022-09-09T11:21:42;5.00;;;4.60;;
8584;SDS011;7180;52.742;11.420;2022-09-09T11:24:10;7.40;;;4.93;;
8584;SDS011;7180;52.742;11.420;2022-09-09T11:26:37;5.00;;;4.60;;
8584;SDS011;7180;52.742;11.420;2022-09-09T11:29:12;4.90;;;4.60;;
8584;SDS011;7180;52.742;11.420;2022-09-09T11:31:58;5.20;;;4.70;;
8584;SDS011;7180;52.742;11.420;2022-09-09T11:37:17;4.70;;;4.30;;
8584;SDS011;7180;52.742;11.420;2022-09-09T11:40:00;4.90;;;4.50;;
8584;SDS011;7180;52.742;11.420;2022-09-09T11:42:32;5.23;;;4.83;;
8584;SDS011;7180;52.742;11.420;2022-09-09T11:44:57;5.03;;;4.63;;
8584;SDS011;7180;52.742;11.420;2022-09-09T11:47:33;4.70;;;4.40;;
8584;SDS011;7180;52.742;11.420;2022-09-09T11:50:26;4.45;;;4.25;;
8584;SDS011;7180;52.742;11.420;2022-09-09T11:53:03;4.80;;;4.40;;
8584;SDS011;7180;52.742;11.420;2022-09-09T11:55:29;5.20;;;4.70;;
8584;SDS011;7180;52.742;11.420;2022-09-09T11:58:06;4.90;;;4.60;;
8584;SDS011;7180;52.742;11.420;2022-09-09T12:00:40;5.03;;;4.53;;
8584;SDS011;7180;52.742;11.420;2022-09-09T12:05:51;5.27;;;4.87;;
8584;SDS011;7180;52.742;11.420;2022-09-09T12:08:16;5.00;;;4.60;;
8584;SDS011;7180;52.742;11.420;2022-09-09T12:10:53;4.63;;;4.33;;
8584;SDS011;7180;52.742;11.420;2022-09-09T12:13:20;5.07;;;4.67;;
8584;SDS011;7180;52.742;11.420;2022-09-09T12:15:50;5.43;;;5.13;;
8584;SDS011;7180;52.742;11.420;2022-09-09T12:18:33;5.33;;;4.83;;
8584;SDS011;7180;52.742;11.420;2022-09-09T12:23:32;5.40;;;5.10;;
8584;SDS011;7180;52.742;11.420;2022-09-09T12:26:05;6.50;;;6.00;;
8584;SDS011;7180;52.742;11.420;2022-09-09T12:28:44;6.43;;;6.00;;
8584;SDS011;7180;52.742;11.420;2022-09-09T12:31:18;5.30;;;4.87;;
8584;SDS011;7180;52.742;11.420;2022-09-09T12:33:47;6.10;;;5.60;;
8584;SDS011;7180;52.742;11.420;2022-09-09T12:36:19;5.27;;;4.83;;
8584;SDS011;7180;52.742;11.420;2022-09-09T12:38:46;5.87;;;5.37;;
8584;SDS011;7180;52.742;11.420;2022-09-09T12:41:22;5.57;;;5.17;;
8584;SDS011;7180;52.742;11.420;2022-09-09T12:43:47;5.60;;;5.17;;
8584;SDS011;7180;52.742;11.420;2022-09-09T12:46:17;5.80;;;5.30;;
8584;SDS011;7180;52.742;11.420;2022-09-09T12:48:46;5.30;;;5.10;;
8584;SDS011;7180;52.742;11.420;2022-09-09T12:51:45;5.27;;;4.97;;
8584;SDS011;7180;52.742;11.420;2022-09-09T12:54:03;6.97;;;6.57;;
8584;SDS011;7180;52.742;11.420;2022-09-09T12:56:30;5.40;;;5.10;;
8584;SDS011;7180;52.742;11.420;2022-09-09T12:58:56;5.17;;;4.77;;
8584;SDS011;7180;52.742;11.420;2022-09-09T13:01:25;5.60;;;5.20;;
8584;SDS011;7180;52.742;11.420;2022-09-09T13:03:51;5.73;;;5.23;;
8584;SDS011;7180;52.742;11.420;2022-09-09T13:06:21;5.40;;;5.10;;
8584;SDS011;7180;52.742;11.420;2022-09-09T13:08:47;5.30;;;5.00;;
8584;SDS011;7180;52.742;11.420;2022-09-09T13:11:14;4.80;;;4.50;;
8584;SDS011;7180;52.742;11.420;2022-09-09T13:13:41;5.40;;;5.00;;
8584;SDS011;7180;52.742;11.420;2022-09-09T13:16:17;6.83;;;4.87;;
8584;SDS011;7180;52.742;11.420;2022-09-09T13:18:43;5.17;;;4.63;;
8584;SDS011;7180;52.742;11.420;2022-09-09T13:21:08;8.60;;;5.50;;
8584;SDS011;7180;52.742;11.420;2022-09-09T13:23:34;5.83;;;4.33;;
8584;SDS011;7180;52.742;11.420;2022-09-09T13:26:00;8.83;;;4.40;;
8584;SDS011;7180;52.742;11.420;2022-09-09T13:28:27;8.03;;;4.40;;
8584;SDS011;7180;52.742;11.420;2022-09-09T13:31:00;9.53;;;3.93;;
8584;SDS011;7180;52.742;11.420;2022-09-09T13:33:32;5.70;;;4.40;;
8584;SDS011;7180;52.742;11.420;2022-09-09T13:36:02;9.47;;;4.50;;
8584;SDS011;7180;52.742;11.420;2022-09-09T13:38:29;4.67;;;4.20;;
8584;SDS011;7180;52.742;11.420;2022-09-09T13:41:03;5.90;;;3.80;;
8584;SDS011;7180;52.742;11.420;2022-09-09T13:43:45;5.43;;;4.07;;
8584;SDS011;7180;52.742;11.420;2022-09-09T13:46:25;6.10;;;4.03;;
8584;SDS011;7180;52.742;11.420;2022-09-09T13:49:02;10.13;;;4.97;;
8584;SDS011;7180;52.742;11.420;2022-09-09T13:51:32;8.87;;;4.50;;
8584;SDS011;7180;52.742;11.420;2022-09-09T13:53:59;5.93;;;4.03;;
8584;SDS011;7180;52.742;11.420;2022-09-09T13:56:25;7.87;;;3.80;;
8584;SDS011;7180;52.742;11.420;2022-09-09T13:58:50;6.00;;;4.20;;
8584;SDS011;7180;52.742;11.420;2022-09-09T14:01:15;6.57;;;4.32;;
8584;SDS011;7180;52.742;11.420;2022-09-09T14:03:40;7.33;;;4.70;;
8584;SDS011;7180;52.742;11.420;2022-09-09T14:06:06;7.97;;;4.47;;
8584;SDS011;7180;52.742;11.420;2022-09-09T14:08:32;8.10;;;4.33;;
8584;SDS011;7180;52.742;11.420;2022-09-09T14:11:02;4.77;;;4.10;;
8584;SDS011;7180;52.742;11.420;2022-09-09T14:13:27;5.27;;;3.90;;
8584;SDS011;7180;52.742;11.420;2022-09-09T14:15:52;6.10;;;4.30;;
8584;SDS011;7180;52.742;11.420;2022-09-09T14:18:18;6.63;;;4.30;;
8584;SDS011;7180;52.742;11.420;2022-09-09T14:20:44;7.35;;;3.97;;
8584;SDS011;7180;52.742;11.420;2022-09-09T14:23:10;5.23;;;3.70;;
8584;SDS011;7180;52.742;11.420;2022-09-09T14:25:35;4.37;;;3.17;;
8584;SDS011;7180;52.742;11.420;2022-09-09T14:28:01;3.90;;;3.30;;
8584;SDS011;7180;52.742;11.420;2022-09-09T14:30:27;4.90;;;3.37;;
8584;SDS011;7180;52.742;11.420;2022-09-09T14:32:52;3.90;;;2.97;;
8584;SDS011;7180;52.742;11.420;2022-09-09T14:35:17;4.03;;;3.17;;
8584;SDS011;7180;52.742;11.420;2022-09-09T14:37:43;6.77;;;3.43;;
8584;SDS011;7180;52.742;11.420;2022-09-09T14:40:09;6.83;;;3.80;;
8584;SDS011;7180;52.742;11.420;2022-09-09T14:42:36;5.33;;;3.27;;
8584;SDS011;7180;52.742;11.420;2022-09-09T14:45:01;5.93;;;3.78;;
8584;SDS011;7180;52.742;11.420;2022-09-09T14:47:26;4.97;;;3.57;;
8584;SDS011;7180;52.742;11.420;2022-09-09T14:49:51;3.07;;;2.87;;
8584;SDS011;7180;52.742;11.420;2022-09-09T14:52:17;6.90;;;3.20;;
8584;SDS011;7180;52.742;11.420;2022-09-09T14:54:42;6.17;;;3.40;;
8584;SDS011;7180;52.742;11.420;2022-09-09T14:57:08;5.07;;;3.60;;
8584;SDS011;7180;52.742;11.420;2022-09-09T14:59:33;4.50;;;3.33;;
8584;SDS011;7180;52.742;11.420;2022-09-09T15:01:59;7.43;;;3.10;;
8584;SDS011;7180;52.742;11.420;2022-09-09T15:04:28;4.13;;;3.43;;
8584;SDS011;7180;52.742;11.420;2022-09-09T15:06:54;3.00;;;2.80;;
8584;SDS011;7180;52.742;11.420;2022-09-09T15:09:19;4.55;;;3.00;;
8584;SDS011;7180;52.742;11.420;2022-09-09T15:11:44;3.92;;;3.00;;
8584;SDS011;7180;52.742;11.420;2022-09-09T15:14:10;3.73;;;3.00;;
8584;SDS011;7180;52.742;11.420;2022-09-09T15:16:37;3.13;;;2.83;;
8584;SDS011;7180;52.742;11.420;2022-09-09T15:19:03;3.83;;;3.50;;
8584;SDS011;7180;52.742;11.420;2022-09-09T15:21:29;3.40;;;3.00;;
8584;SDS011;7180;52.742;11.420;2022-09-09T15:23:55;4.63;;;2.93;;
8584;SDS011;7180;52.742;11.420;2022-09-09T15:26:20;3.90;;;3.60;;
8584;SDS011;7180;52.742;11.420;2022-09-09T15:28:46;3.90;;;3.60;;
8584;SDS011;7180;52.742;11.420;2022-09-09T15:31:13;4.00;;;3.70;;
8584;SDS011;7180;52.742;11.420;2022-09-09T15:33:39;3.87;;;3.50;;
8584;SDS011;7180;52.742;11.420;2022-09-09T15:36:14;3.50;;;3.20;;
8584;SDS011;7180;52.742;11.420;2022-09-09T15:38:39;4.23;;;3.60;;
8584;SDS011;7180;52.742;11.420;2022-09-09T15:41:05;3.73;;;2.83;;
8584;SDS011;7180;52.742;11.420;2022-09-09T15:43:30;3.50;;;3.20;;
8584;SDS011;7180;52.742;11.420;2022-09-09T15:45:56;3.00;;;2.80;;
8584;SDS011;7180;52.742;11.420;2022-09-09T15:48:29;3.30;;;3.10;;
8584;SDS011;7180;52.742;11.420;2022-09-09T15:51:01;3.57;;;3.27;;
8584;SDS011;7180;52.742;11.420;2022-09-09T15:53:28;3.53;;;3.10;;
8584;SDS011;7180;52.742;11.420;2022-09-09T15:55:54;4.65;;;3.00;;
8584;SDS011;7180;52.742;11.420;2022-09-09T15:58:20;3.30;;;3.10;;
8584;SDS011;7180;52.742;11.420;2022-09-09T16:00:45;3.47;;;3.10;;
8584;SDS011;7180;52.742;11.420;2022-09-09T16:03:10;3.77;;;3.03;;
8584;SDS011;7180;52.742;11.420;2022-09-09T16:05:37;3.50;;;3.20;;
8584;SDS011;7180;52.742;11.420;2022-09-09T16:08:02;3.30;;;3.00;;
8584;SDS011;7180;52.742;11.420;2022-09-09T16:10:28;4.00;;;2.97;;
8584;SDS011;7180;52.742;11.420;2022-09-09T16:12:55;3.43;;;3.03;;
8584;SDS011;7180;52.742;11.420;2022-09-09T16:15:20;3.10;;;2.87;;
8584;SDS011;7180;52.742;11.420;2022-09-09T16:17:48;3.40;;;3.10;;
8584;SDS011;7180;52.742;11.420;2022-09-09T16:20:13;3.50;;;3.20;;
8584;SDS011;7180;52.742;11.420;2022-09-09T16:22:39;3.50;;;3.30;;
8584;SDS011;7180;52.742;11.420;2022-09-09T16:25:05;4.00;;;3.30;;
8584;SDS011;7180;52.742;11.420;2022-09-09T16:27:30;3.73;;;2.93;;
8584;SDS011;7180;52.742;11.420;2022-09-09T16:29:55;4.30;;;3.10;;